sensor_id;sensor_type;location;lat;lon;timestamp;P1;durP1;ratioP1;P2;durP2;ratioP2
5499;SDS011;2772;42.700;23.304;2023-05-15T00:01:10;8.70;;;7.57;;
5499;SDS011;2772;42.700;23.304;2023-05-15T00:03:37;8.23;;;6.60;;
5499;SDS011;2772;42.700;23.304;2023-05-15T00:06:05;8.43;;;6.40;;
5499;SDS011;2772;42.700;23.304;2023-05-15T00:08:32;9.63;;;6.40;;
5499;SDS011;2772;42.700;23.304;2023-05-15T00:10:59;6.90;;;6.13;;
5499;SDS011;2772;42.700;23.304;2023-05-15T00:13:25;7.50;;;6.70;;
5499;SDS011;2772;42.700;23.304;2023-05-15T00:15:52;10.00;;;6.93;;
5499;SDS011;2772;42.700;23.304;2023-05-15T00:18:19;6.47;;;5.60;;
5499;SDS011;2772;42.700;23.304;2023-05-15T00:20:46;6.70;;;6.10;;
5499;SDS011;2772;42.700;23.304;2023-05-15T00:23:14;8.93;;;7.13;;
5499;SDS011;2772;42.700;23.304;2023-05-15T00:25:40;9.30;;;7.60;;
5499;SDS011;2772;42.700;23.304;2023-05-15T00:28:07;7.30;;;6.60;;
5499;SDS011;2772;42.700;23.304;2023-05-15T00:30:34;7.27;;;6.27;;
5499;SDS011;2772;42.700;23.304;2023-05-15T00:33:01;7.07;;;6.37;;
5499;SDS011;2772;42.700;23.304;2023-05-15T00:35:27;10.30;;;6.73;;
5499;SDS011;2772;42.700;23.304;2023-05-15T00:37:54;7.03;;;6.40;;
5499;SDS011;2772;42.700;23.304;2023-05-15T00:40:22;6.87;;;6.17;;
5499;SDS011;2772;42.700;23.304;2023-05-15T00:42:51;14.10;;;6.10;;
5499;SDS011;2772;42.700;23.304;2023-05-15T00:45:18;7.63;;;6.67;;
5499;SDS011;2772;42.700;23.304;2023-05-15T00:47:47;8.97;;;6.27;;
5499;SDS011;2772;42.700;23.304;2023-05-15T00:50:15;6.77;;;6.17;;
5499;SDS011;2772;42.700;23.304;2023-05-15T00:52:42;10.13;;;6.57;;
5499;SDS011;2772;42.700;23.304;2023-05-15T00:55:09;7.60;;;6.80;;
5499;SDS011;2772;42.700;23.304;2023-05-15T00:57:37;7.07;;;6.37;;
5499;SDS011;2772;42.700;23.304;2023-05-15T01:00:07;10.97;;;6.90;;
5499;SDS011;2772;42.700;23.304;2023-05-15T01:02:34;7.40;;;6.70;;
5499;SDS011;2772;42.700;23.304;2023-05-15T01:05:02;8.70;;;7.07;;
5499;SDS011;2772;42.700;23.304;2023-05-15T01:07:29;7.83;;;6.80;;
5499;SDS011;2772;42.700;23.304;2023-05-15T01:10:00;8.10;;;7.30;;
5499;SDS011;2772;42.700;23.304;2023-05-15T01:12:29;14.57;;;7.83;;
5499;SDS011;2772;42.700;23.304;2023-05-15T01:14:59;7.43;;;6.73;;
5499;SDS011;2772;42.700;23.304;2023-05-15T01:17:26;8.27;;;6.87;;
5499;SDS011;2772;42.700;23.304;2023-05-15T01:19:53;8.40;;;7.20;;
5499;SDS011;2772;42.700;23.304;2023-05-15T01:22:33;8.20;;;6.90;;
5499;SDS011;2772;42.700;23.304;2023-05-15T01:25:24;8.00;;;7.20;;
5499;SDS011;2772;42.700;23.304;2023-05-15T01:28:12;8.03;;;7.13;;
5499;SDS011;2772;42.700;23.304;2023-05-15T01:30:44;7.57;;;6.87;;
5499;SDS011;2772;42.700;23.304;2023-05-15T01:33:15;7.30;;;6.70;;
5499;SDS011;2772;42.700;23.304;2023-05-15T01:35:46;7.03;;;6.37;;
5499;SDS011;2772;42.700;23.304;2023-05-15T01:38:18;7.70;;;6.60;;
5499;SDS011;2772;42.700;23.304;2023-05-15T01:40:55;7.13;;;6.53;;
5499;SDS011;2772;42.700;23.304;2023-05-15T01:43:28;9.90;;;6.80;;
5499;SDS011;2772;42.700;23.304;2023-05-15T01:45:58;9.70;;;6.83;;
5499;SDS011;2772;42.700;23.304;2023-05-15T01:48:25;7.77;;;6.80;;
5499;SDS011;2772;42.700;23.304;2023-05-15T01:50:53;7.00;;;6.30;;
5499;SDS011;2772;42.700;23.304;2023-05-15T01:53:24;7.77;;;6.90;;
5499;SDS011;2772;42.700;23.304;2023-05-15T01:55:52;8.53;;;6.97;;
5499;SDS011;2772;42.700;23.304;2023-05-15T01:58:20;9.10;;;7.53;;
5499;SDS011;2772;42.700;23.304;2023-05-15T02:00:49;10.50;;;7.87;;
5499;SDS011;2772;42.700;23.304;2023-05-15T02:03:17;11.60;;;7.43;;
5499;SDS011;2772;42.700;23.304;2023-05-15T02:05:45;8.00;;;7.17;;
5499;SDS011;2772;42.700;23.304;2023-05-15T02:08:12;9.00;;;7.63;;
5499;SDS011;2772;42.700;23.304;2023-05-15T02:10:39;8.57;;;7.10;;
5499;SDS011;2772;42.700;23.304;2023-05-15T02:13:07;8.67;;;7.20;;
5499;SDS011;2772;42.700;23.304;2023-05-15T02:15:34;7.97;;;7.23;;
5499;SDS011;2772;42.700;23.304;2023-05-15T02:18:04;7.93;;;7.07;;
5499;SDS011;2772;42.700;23.304;2023-05-15T02:20:31;14.40;;;9.00;;
5499;SDS011;2772;42.700;23.304;2023-05-15T02:22:58;10.47;;;8.00;;
5499;SDS011;2772;42.700;23.304;2023-05-15T02:25:26;8.30;;;7.50;;
5499;SDS011;2772;42.700;23.304;2023-05-15T02:27:59;8.63;;;7.67;;
5499;SDS011;2772;42.700;23.304;2023-05-15T02:30:31;7.73;;;6.90;;
5499;SDS011;2772;42.700;23.304;2023-05-15T02:33:10;8.03;;;7.23;;
5499;SDS011;2772;42.700;23.304;2023-05-15T02:35:41;10.77;;;9.00;;
5499;SDS011;2772;42.700;23.304;2023-05-15T02:38:15;12.82;;;8.88;;
5499;SDS011;2772;42.700;23.304;2023-05-15T02:40:44;10.10;;;8.30;;
5499;SDS011;2772;42.700;23.304;2023-05-15T02:43:13;13.47;;;8.27;;
5499;SDS011;2772;42.700;23.304;2023-05-15T02:45:43;10.40;;;8.90;;
5499;SDS011;2772;42.700;23.304;2023-05-15T02:48:12;12.27;;;8.70;;
5499;SDS011;2772;42.700;23.304;2023-05-15T02:50:40;15.37;;;9.40;;
5499;SDS011;2772;42.700;23.304;2023-05-15T02:53:07;16.10;;;9.73;;
5499;SDS011;2772;42.700;23.304;2023-05-15T02:55:34;12.30;;;10.23;;
5499;SDS011;2772;42.700;23.304;2023-05-15T02:58:01;13.50;;;9.93;;
5499;SDS011;2772;42.700;23.304;2023-05-15T03:00:29;15.43;;;10.50;;
5499;SDS011;2772;42.700;23.304;2023-05-15T03:02:55;15.03;;;11.10;;
5499;SDS011;2772;42.700;23.304;2023-05-15T03:05:23;19.03;;;10.30;;
5499;SDS011;2772;42.700;23.304;2023-05-15T03:07:51;15.43;;;10.17;;
5499;SDS011;2772;42.700;23.304;2023-05-15T03:10:17;12.60;;;10.30;;
5499;SDS011;2772;42.700;23.304;2023-05-15T03:12:45;11.50;;;9.20;;
5499;SDS011;2772;42.700;23.304;2023-05-15T03:15:12;13.57;;;10.83;;
5499;SDS011;2772;42.700;23.304;2023-05-15T03:17:38;12.20;;;9.30;;
5499;SDS011;2772;42.700;23.304;2023-05-15T03:20:06;13.27;;;10.77;;
5499;SDS011;2772;42.700;23.304;2023-05-15T03:22:35;21.03;;;11.40;;
5499;SDS011;2772;42.700;23.304;2023-05-15T03:25:02;18.90;;;12.27;;
5499;SDS011;2772;42.700;23.304;2023-05-15T03:27:28;19.20;;;14.00;;
5499;SDS011;2772;42.700;23.304;2023-05-15T03:29:55;19.47;;;13.73;;
5499;SDS011;2772;42.700;23.304;2023-05-15T03:32:22;16.67;;;12.00;;
5499;SDS011;2772;42.700;23.304;2023-05-15T03:34:49;17.60;;;12.00;;
5499;SDS011;2772;42.700;23.304;2023-05-15T03:37:15;17.50;;;12.27;;
5499;SDS011;2772;42.700;23.304;2023-05-15T03:39:44;17.67;;;11.90;;
5499;SDS011;2772;42.700;23.304;2023-05-15T03:42:10;16.03;;;11.77;;
5499;SDS011;2772;42.700;23.304;2023-05-15T03:44:37;16.33;;;10.83;;
5499;SDS011;2772;42.700;23.304;2023-05-15T03:47:04;15.13;;;12.10;;
5499;SDS011;2772;42.700;23.304;2023-05-15T03:49:32;14.47;;;11.10;;
5499;SDS011;2772;42.700;23.304;2023-05-15T03:51:59;16.10;;;11.63;;
5499;SDS011;2772;42.700;23.304;2023-05-15T03:54:26;13.53;;;10.40;;
5499;SDS011;2772;42.700;23.304;2023-05-15T03:56:54;19.10;;;12.37;;
5499;SDS011;2772;42.700;23.304;2023-05-15T03:59:22;17.93;;;12.57;;
5499;SDS011;2772;42.700;23.304;2023-05-15T04:01:49;17.17;;;12.53;;
5499;SDS011;2772;42.700;23.304;2023-05-15T04:04:16;18.27;;;12.43;;
5499;SDS011;2772;42.700;23.304;2023-05-15T04:06:43;15.43;;;11.53;;
5499;SDS011;2772;42.700;23.304;2023-05-15T04:09:11;19.67;;;12.60;;
5499;SDS011;2772;42.700;23.304;2023-05-15T04:11:38;17.90;;;12.80;;
5499;SDS011;2772;42.700;23.304;2023-05-15T04:14:06;17.33;;;12.87;;
5499;SDS011;2772;42.700;23.304;2023-05-15T04:16:32;18.70;;;12.43;;
5499;SDS011;2772;42.700;23.304;2023-05-15T04:18:59;18.73;;;12.43;;
5499;SDS011;2772;42.700;23.304;2023-05-15T04:21:26;17.27;;;12.70;;
5499;SDS011;2772;42.700;23.304;2023-05-15T04:23:53;17.57;;;13.13;;
5499;SDS011;2772;42.700;23.304;2023-05-15T04:26:20;19.20;;;13.47;;
5499;SDS011;2772;42.700;23.304;2023-05-15T04:28:46;18.83;;;13.27;;
5499;SDS011;2772;42.700;23.304;2023-05-15T04:31:15;20.70;;;14.70;;
5499;SDS011;2772;42.700;23.304;2023-05-15T04:33:41;21.70;;;14.17;;
5499;SDS011;2772;42.700;23.304;2023-05-15T04:36:08;20.50;;;14.73;;
5499;SDS011;2772;42.700;23.304;2023-05-15T04:38:35;19.70;;;14.07;;
5499;SDS011;2772;42.700;23.304;2023-05-15T04:41:02;20.53;;;14.93;;
5499;SDS011;2772;42.700;23.304;2023-05-15T04:43:29;19.33;;;12.70;;
5499;SDS011;2772;42.700;23.304;2023-05-15T04:45:56;16.07;;;12.30;;
5499;SDS011;2772;42.700;23.304;2023-05-15T04:48:25;19.70;;;14.60;;
5499;SDS011;2772;42.700;23.304;2023-05-15T04:50:51;20.17;;;13.80;;
5499;SDS011;2772;42.700;23.304;2023-05-15T04:53:19;20.87;;;13.20;;
5499;SDS011;2772;42.700;23.304;2023-05-15T04:55:46;26.63;;;14.97;;
5499;SDS011;2772;42.700;23.304;2023-05-15T04:58:15;17.60;;;13.03;;
5499;SDS011;2772;42.700;23.304;2023-05-15T05:00:42;13.63;;;10.90;;
5499;SDS011;2772;42.700;23.304;2023-05-15T05:03:09;21.17;;;13.10;;
5499;SDS011;2772;42.700;23.304;2023-05-15T05:05:37;18.93;;;12.80;;
5499;SDS011;2772;42.700;23.304;2023-05-15T05:08:04;15.80;;;12.10;;
5499;SDS011;2772;42.700;23.304;2023-05-15T05:10:31;16.00;;;12.70;;
5499;SDS011;2772;42.700;23.304;2023-05-15T05:12:58;24.23;;;13.63;;
5499;SDS011;2772;42.700;23.304;2023-05-15T05:15:24;17.73;;;12.80;;
5499;SDS011;2772;42.700;23.304;2023-05-15T05:17:51;17.53;;;12.80;;
5499;SDS011;2772;42.700;23.304;2023-05-15T05:20:18;20.63;;;12.60;;
5499;SDS011;2772;42.700;23.304;2023-05-15T05:22:47;17.80;;;13.17;;
5499;SDS011;2772;42.700;23.304;2023-05-15T05:25:13;19.30;;;13.03;;
5499;SDS011;2772;42.700;23.304;2023-05-15T05:27:40;17.27;;;11.77;;
5499;SDS011;2772;42.700;23.304;2023-05-15T05:30:08;16.70;;;12.30;;
5499;SDS011;2772;42.700;23.304;2023-05-15T05:32:35;15.40;;;11.53;;
5499;SDS011;2772;42.700;23.304;2023-05-15T05:35:02;19.87;;;13.10;;
5499;SDS011;2772;42.700;23.304;2023-05-15T05:37:29;15.77;;;12.27;;
5499;SDS011;2772;42.700;23.304;2023-05-15T05:39:57;15.67;;;12.27;;
5499;SDS011;2772;42.700;23.304;2023-05-15T05:42:26;17.53;;;12.43;;
5499;SDS011;2772;42.700;23.304;2023-05-15T05:44:53;17.17;;;13.07;;
5499;SDS011;2772;42.700;23.304;2023-05-15T05:47:20;16.20;;;12.37;;
5499;SDS011;2772;42.700;23.304;2023-05-15T05:49:47;20.17;;;13.37;;
5499;SDS011;2772;42.700;23.304;2023-05-15T05:52:14;19.33;;;12.60;;
5499;SDS011;2772;42.700;23.304;2023-05-15T05:54:41;21.10;;;13.07;;
5499;SDS011;2772;42.700;23.304;2023-05-15T05:57:11;17.67;;;12.67;;
5499;SDS011;2772;42.700;23.304;2023-05-15T05:59:38;15.80;;;11.80;;
5499;SDS011;2772;42.700;23.304;2023-05-15T06:02:05;16.47;;;11.60;;
5499;SDS011;2772;42.700;23.304;2023-05-15T06:04:33;19.03;;;12.13;;
5499;SDS011;2772;42.700;23.304;2023-05-15T06:07:00;14.83;;;10.60;;
5499;SDS011;2772;42.700;23.304;2023-05-15T06:09:27;13.00;;;10.50;;
5499;SDS011;2772;42.700;23.304;2023-05-15T06:11:53;13.37;;;10.60;;
5499;SDS011;2772;42.700;23.304;2023-05-15T06:14:21;19.20;;;13.13;;
5499;SDS011;2772;42.700;23.304;2023-05-15T06:16:48;24.93;;;14.80;;
5499;SDS011;2772;42.700;23.304;2023-05-15T06:19:15;30.73;;;16.97;;
5499;SDS011;2772;42.700;23.304;2023-05-15T06:21:42;25.57;;;17.40;;
5499;SDS011;2772;42.700;23.304;2023-05-15T06:24:09;28.40;;;15.60;;
5499;SDS011;2772;42.700;23.304;2023-05-15T06:26:35;24.63;;;14.47;;
5499;SDS011;2772;42.700;23.304;2023-05-15T06:29:02;25.10;;;13.63;;
5499;SDS011;2772;42.700;23.304;2023-05-15T06:31:30;22.03;;;12.63;;
5499;SDS011;2772;42.700;23.304;2023-05-15T06:33:57;18.83;;;13.00;;
5499;SDS011;2772;42.700;23.304;2023-05-15T06:36:24;24.20;;;13.70;;
5499;SDS011;2772;42.700;23.304;2023-05-15T06:38:51;28.17;;;15.13;;
5499;SDS011;2772;42.700;23.304;2023-05-15T06:41:17;21.03;;;13.07;;
5499;SDS011;2772;42.700;23.304;2023-05-15T06:43:45;24.63;;;14.90;;
5499;SDS011;2772;42.700;23.304;2023-05-15T06:46:12;24.27;;;14.47;;
5499;SDS011;2772;42.700;23.304;2023-05-15T06:48:41;27.33;;;13.83;;
5499;SDS011;2772;42.700;23.304;2023-05-15T06:51:08;31.80;;;14.20;;
5499;SDS011;2772;42.700;23.304;2023-05-15T06:53:35;27.50;;;13.47;;
5499;SDS011;2772;42.700;23.304;2023-05-15T06:56:02;19.57;;;13.37;;
5499;SDS011;2772;42.700;23.304;2023-05-15T06:58:28;24.13;;;13.33;;
5499;SDS011;2772;42.700;23.304;2023-05-15T07:00:55;26.93;;;12.73;;
5499;SDS011;2772;42.700;23.304;2023-05-15T07:03:22;22.53;;;12.37;;
5499;SDS011;2772;42.700;23.304;2023-05-15T07:05:50;23.53;;;12.60;;
5499;SDS011;2772;42.700;23.304;2023-05-15T07:08:17;30.13;;;11.97;;
5499;SDS011;2772;42.700;23.304;2023-05-15T07:10:44;41.57;;;14.80;;
5499;SDS011;2772;42.700;23.304;2023-05-15T07:13:11;23.60;;;12.23;;
5499;SDS011;2772;42.700;23.304;2023-05-15T07:15:38;18.63;;;11.43;;
5499;SDS011;2772;42.700;23.304;2023-05-15T07:18:05;30.40;;;13.73;;
5499;SDS011;2772;42.700;23.304;2023-05-15T07:20:31;25.03;;;13.13;;
5499;SDS011;2772;42.700;23.304;2023-05-15T07:22:59;24.57;;;12.00;;
5499;SDS011;2772;42.700;23.304;2023-05-15T07:25:26;20.27;;;12.17;;
5499;SDS011;2772;42.700;23.304;2023-05-15T07:27:53;17.97;;;12.50;;
5499;SDS011;2772;42.700;23.304;2023-05-15T07:30:20;23.80;;;12.60;;
5499;SDS011;2772;42.700;23.304;2023-05-15T07:32:47;14.67;;;10.50;;
5499;SDS011;2772;42.700;23.304;2023-05-15T07:35:14;17.20;;;11.63;;
5499;SDS011;2772;42.700;23.304;2023-05-15T07:37:41;28.60;;;12.17;;
5499;SDS011;2772;42.700;23.304;2023-05-15T07:40:09;28.13;;;13.50;;
5499;SDS011;2772;42.700;23.304;2023-05-15T07:42:36;16.63;;;11.27;;
5499;SDS011;2772;42.700;23.304;2023-05-15T07:45:05;21.17;;;12.17;;
5499;SDS011;2772;42.700;23.304;2023-05-15T07:47:32;19.67;;;13.23;;
5499;SDS011;2772;42.700;23.304;2023-05-15T07:50:00;20.13;;;12.50;;
5499;SDS011;2772;42.700;23.304;2023-05-15T07:52:27;17.17;;;11.30;;
5499;SDS011;2772;42.700;23.304;2023-05-15T07:54:54;24.57;;;13.30;;
5499;SDS011;2772;42.700;23.304;2023-05-15T07:57:22;19.83;;;13.10;;
5499;SDS011;2772;42.700;23.304;2023-05-15T07:59:49;22.50;;;13.10;;
5499;SDS011;2772;42.700;23.304;2023-05-15T08:02:16;21.20;;;13.70;;
5499;SDS011;2772;42.700;23.304;2023-05-15T08:04:43;24.60;;;14.77;;
5499;SDS011;2772;42.700;23.304;2023-05-15T08:07:09;19.13;;;13.57;;
5499;SDS011;2772;42.700;23.304;2023-05-15T08:09:36;22.20;;;13.73;;
5499;SDS011;2772;42.700;23.304;2023-05-15T08:12:15;23.90;;;15.20;;
5499;SDS011;2772;42.700;23.304;2023-05-15T08:14:47;18.97;;;13.90;;
5499;SDS011;2772;42.700;23.304;2023-05-15T08:17:14;21.13;;;13.37;;
5499;SDS011;2772;42.700;23.304;2023-05-15T08:19:41;18.40;;;12.73;;
5499;SDS011;2772;42.700;23.304;2023-05-15T08:22:08;23.43;;;14.60;;
5499;SDS011;2772;42.700;23.304;2023-05-15T08:24:35;21.70;;;15.10;;
5499;SDS011;2772;42.700;23.304;2023-05-15T08:27:03;23.87;;;15.10;;
5499;SDS011;2772;42.700;23.304;2023-05-15T08:29:30;21.73;;;15.70;;
5499;SDS011;2772;42.700;23.304;2023-05-15T08:31:58;23.60;;;15.20;;
5499;SDS011;2772;42.700;23.304;2023-05-15T08:34:25;25.57;;;16.00;;
5499;SDS011;2772;42.700;23.304;2023-05-15T08:36:52;33.03;;;17.13;;
5499;SDS011;2772;42.700;23.304;2023-05-15T08:39:20;21.60;;;14.67;;
5499;SDS011;2772;42.700;23.304;2023-05-15T08:41:47;23.97;;;14.13;;
5499;SDS011;2772;42.700;23.304;2023-05-15T08:44:18;39.50;;;18.87;;
5499;SDS011;2772;42.700;23.304;2023-05-15T08:46:46;36.23;;;17.13;;
5499;SDS011;2772;42.700;23.304;2023-05-15T08:49:16;19.80;;;13.27;;
5499;SDS011;2772;42.700;23.304;2023-05-15T08:51:51;25.87;;;15.67;;
5499;SDS011;2772;42.700;23.304;2023-05-15T08:54:19;21.50;;;15.30;;
5499;SDS011;2772;42.700;23.304;2023-05-15T08:56:46;24.90;;;15.63;;
5499;SDS011;2772;42.700;23.304;2023-05-15T08:59:14;24.43;;;16.57;;
5499;SDS011;2772;42.700;23.304;2023-05-15T09:01:41;28.93;;;14.63;;
5499;SDS011;2772;42.700;23.304;2023-05-15T09:04:08;23.00;;;13.63;;
5499;SDS011;2772;42.700;23.304;2023-05-15T09:06:36;22.07;;;13.60;;
5499;SDS011;2772;42.700;23.304;2023-05-15T09:09:04;21.20;;;14.83;;
5499;SDS011;2772;42.700;23.304;2023-05-15T09:11:31;22.53;;;13.67;;
5499;SDS011;2772;42.700;23.304;2023-05-15T09:13:59;17.70;;;13.67;;
5499;SDS011;2772;42.700;23.304;2023-05-15T09:16:26;20.57;;;13.90;;
5499;SDS011;2772;42.700;23.304;2023-05-15T09:18:53;22.37;;;14.07;;
5499;SDS011;2772;42.700;23.304;2023-05-15T09:21:22;21.97;;;14.57;;
5499;SDS011;2772;42.700;23.304;2023-05-15T09:23:51;24.53;;;14.17;;
5499;SDS011;2772;42.700;23.304;2023-05-15T09:26:18;35.67;;;15.87;;
5499;SDS011;2772;42.700;23.304;2023-05-15T09:28:45;34.23;;;15.57;;
5499;SDS011;2772;42.700;23.304;2023-05-15T09:31:12;30.47;;;15.60;;
5499;SDS011;2772;42.700;23.304;2023-05-15T09:33:40;23.63;;;14.47;;
5499;SDS011;2772;42.700;23.304;2023-05-15T09:36:07;25.77;;;14.27;;
5499;SDS011;2772;42.700;23.304;2023-05-15T09:38:38;23.83;;;14.70;;
5499;SDS011;2772;42.700;23.304;2023-05-15T09:41:08;21.97;;;13.27;;
5499;SDS011;2772;42.700;23.304;2023-05-15T09:43:35;25.80;;;14.57;;
5499;SDS011;2772;42.700;23.304;2023-05-15T09:46:05;30.87;;;14.07;;
5499;SDS011;2772;42.700;23.304;2023-05-15T09:48:36;21.70;;;13.53;;
5499;SDS011;2772;42.700;23.304;2023-05-15T09:51:04;27.13;;;14.47;;
5499;SDS011;2772;42.700;23.304;2023-05-15T09:53:31;23.57;;;14.30;;
5499;SDS011;2772;42.700;23.304;2023-05-15T09:55:58;44.23;;;15.57;;
5499;SDS011;2772;42.700;23.304;2023-05-15T09:58:26;19.77;;;12.90;;
5499;SDS011;2772;42.700;23.304;2023-05-15T10:00:53;22.40;;;13.10;;
5499;SDS011;2772;42.700;23.304;2023-05-15T10:03:20;19.37;;;13.93;;
5499;SDS011;2772;42.700;23.304;2023-05-15T10:05:47;14.27;;;11.30;;
5499;SDS011;2772;42.700;23.304;2023-05-15T10:08:15;24.63;;;13.20;;
5499;SDS011;2772;42.700;23.304;2023-05-15T10:10:51;22.07;;;14.47;;
5499;SDS011;2772;42.700;23.304;2023-05-15T10:13:18;24.57;;;13.43;;
5499;SDS011;2772;42.700;23.304;2023-05-15T10:15:49;19.40;;;12.70;;
5499;SDS011;2772;42.700;23.304;2023-05-15T10:18:16;29.30;;;12.70;;
5499;SDS011;2772;42.700;23.304;2023-05-15T10:20:46;27.07;;;13.40;;
5499;SDS011;2772;42.700;23.304;2023-05-15T10:23:14;15.13;;;10.90;;
5499;SDS011;2772;42.700;23.304;2023-05-15T10:25:44;16.13;;;11.20;;
5499;SDS011;2772;42.700;23.304;2023-05-15T10:28:20;17.50;;;11.20;;
5499;SDS011;2772;42.700;23.304;2023-05-15T10:30:49;39.87;;;13.60;;
5499;SDS011;2772;42.700;23.304;2023-05-15T10:33:17;31.93;;;14.17;;
5499;SDS011;2772;42.700;23.304;2023-05-15T10:35:45;24.17;;;12.20;;
5499;SDS011;2772;42.700;23.304;2023-05-15T10:38:13;20.43;;;11.50;;
5499;SDS011;2772;42.700;23.304;2023-05-15T10:40:41;13.77;;;10.03;;
5499;SDS011;2772;42.700;23.304;2023-05-15T10:43:10;16.13;;;11.50;;
5499;SDS011;2772;42.700;23.304;2023-05-15T10:45:39;30.47;;;12.50;;
5499;SDS011;2772;42.700;23.304;2023-05-15T10:48:08;25.33;;;12.17;;
5499;SDS011;2772;42.700;23.304;2023-05-15T10:50:36;17.33;;;12.50;;
5499;SDS011;2772;42.700;23.304;2023-05-15T10:53:03;22.63;;;13.37;;
5499;SDS011;2772;42.700;23.304;2023-05-15T10:55:30;19.93;;;11.50;;
5499;SDS011;2772;42.700;23.304;2023-05-15T10:57:57;15.60;;;11.97;;
5499;SDS011;2772;42.700;23.304;2023-05-15T11:00:24;26.40;;;11.90;;
5499;SDS011;2772;42.700;23.304;2023-05-15T11:02:52;27.53;;;12.10;;
5499;SDS011;2772;42.700;23.304;2023-05-15T11:05:22;15.57;;;10.60;;
5499;SDS011;2772;42.700;23.304;2023-05-15T11:10:53;26.67;;;12.87;;
5499;SDS011;2772;42.700;23.304;2023-05-15T11:13:20;28.27;;;15.43;;
5499;SDS011;2772;42.700;23.304;2023-05-15T11:15:47;22.07;;;14.30;;
5499;SDS011;2772;42.700;23.304;2023-05-15T11:18:14;27.40;;;13.90;;
5499;SDS011;2772;42.700;23.304;2023-05-15T11:23:37;27.87;;;13.77;;
5499;SDS011;2772;42.700;23.304;2023-05-15T11:26:05;22.53;;;14.20;;
5499;SDS011;2772;42.700;23.304;2023-05-15T11:28:34;21.47;;;14.80;;
5499;SDS011;2772;42.700;23.304;2023-05-15T11:31:07;19.20;;;14.43;;
5499;SDS011;2772;42.700;23.304;2023-05-15T11:33:36;25.03;;;15.37;;
5499;SDS011;2772;42.700;23.304;2023-05-15T11:36:05;27.90;;;13.50;;
5499;SDS011;2772;42.700;23.304;2023-05-15T11:38:35;26.17;;;13.90;;
5499;SDS011;2772;42.700;23.304;2023-05-15T11:41:15;24.57;;;14.63;;
5499;SDS011;2772;42.700;23.304;2023-05-15T11:43:43;22.83;;;14.07;;
5499;SDS011;2772;42.700;23.304;2023-05-15T11:46:11;26.50;;;13.20;;
5499;SDS011;2772;42.700;23.304;2023-05-15T11:48:39;22.73;;;12.80;;
5499;SDS011;2772;42.700;23.304;2023-05-15T11:51:14;16.33;;;12.87;;
5499;SDS011;2772;42.700;23.304;2023-05-15T11:53:42;24.47;;;12.87;;
5499;SDS011;2772;42.700;23.304;2023-05-15T11:56:11;27.63;;;14.67;;
5499;SDS011;2772;42.700;23.304;2023-05-15T11:58:42;29.93;;;13.17;;
5499;SDS011;2772;42.700;23.304;2023-05-15T12:01:09;22.83;;;13.07;;
5499;SDS011;2772;42.700;23.304;2023-05-15T12:03:37;20.83;;;14.00;;
5499;SDS011;2772;42.700;23.304;2023-05-15T12:06:04;26.63;;;13.40;;
5499;SDS011;2772;42.700;23.304;2023-05-15T12:08:32;22.57;;;13.20;;
5499;SDS011;2772;42.700;23.304;2023-05-15T12:11:00;32.13;;;13.47;;
5499;SDS011;2772;42.700;23.304;2023-05-15T12:13:28;17.60;;;12.90;;
5499;SDS011;2772;42.700;23.304;2023-05-15T12:15:55;18.80;;;12.40;;
5499;SDS011;2772;42.700;23.304;2023-05-15T12:18:22;24.60;;;13.00;;
5499;SDS011;2772;42.700;23.304;2023-05-15T12:20:50;21.30;;;13.23;;
5499;SDS011;2772;42.700;23.304;2023-05-15T12:23:19;27.00;;;15.57;;
5499;SDS011;2772;42.700;23.304;2023-05-15T12:25:49;17.80;;;13.10;;
5499;SDS011;2772;42.700;23.304;2023-05-15T12:28:19;33.13;;;13.20;;
5499;SDS011;2772;42.700;23.304;2023-05-15T12:30:46;26.30;;;13.77;;
5499;SDS011;2772;42.700;23.304;2023-05-15T12:33:13;36.53;;;13.40;;
5499;SDS011;2772;42.700;23.304;2023-05-15T12:35:41;24.20;;;12.50;;
5499;SDS011;2772;42.700;23.304;2023-05-15T12:38:12;27.80;;;14.90;;
5499;SDS011;2772;42.700;23.304;2023-05-15T12:40:40;17.53;;;12.87;;
5499;SDS011;2772;42.700;23.304;2023-05-15T12:43:10;20.87;;;11.97;;
5499;SDS011;2772;42.700;23.304;2023-05-15T12:45:38;22.70;;;12.00;;
5499;SDS011;2772;42.700;23.304;2023-05-15T12:48:05;19.90;;;12.80;;
5499;SDS011;2772;42.700;23.304;2023-05-15T12:50:33;20.13;;;12.87;;
5499;SDS011;2772;42.700;23.304;2023-05-15T12:53:01;23.47;;;13.37;;
5499;SDS011;2772;42.700;23.304;2023-05-15T12:55:29;35.13;;;14.40;;
5499;SDS011;2772;42.700;23.304;2023-05-15T12:57:57;26.73;;;13.30;;
5499;SDS011;2772;42.700;23.304;2023-05-15T13:00:27;30.97;;;12.67;;
5499;SDS011;2772;42.700;23.304;2023-05-15T13:02:56;22.20;;;12.60;;
5499;SDS011;2772;42.700;23.304;2023-05-15T13:05:24;21.40;;;13.27;;
5499;SDS011;2772;42.700;23.304;2023-05-15T13:07:51;26.40;;;12.50;;
5499;SDS011;2772;42.700;23.304;2023-05-15T13:10:19;28.73;;;12.00;;
5499;SDS011;2772;42.700;23.304;2023-05-15T13:12:47;17.53;;;11.00;;
5499;SDS011;2772;42.700;23.304;2023-05-15T13:15:23;13.63;;;10.17;;
5499;SDS011;2772;42.700;23.304;2023-05-15T13:17:53;16.37;;;10.47;;
5499;SDS011;2772;42.700;23.304;2023-05-15T13:20:23;21.33;;;11.20;;
5499;SDS011;2772;42.700;23.304;2023-05-15T13:22:50;27.90;;;10.53;;
5499;SDS011;2772;42.700;23.304;2023-05-15T13:25:17;20.43;;;10.70;;
5499;SDS011;2772;42.700;23.304;2023-05-15T13:27:44;14.57;;;10.60;;
5499;SDS011;2772;42.700;23.304;2023-05-15T13:30:12;21.00;;;11.63;;
5499;SDS011;2772;42.700;23.304;2023-05-15T13:32:39;20.23;;;11.50;;
5499;SDS011;2772;42.700;23.304;2023-05-15T13:35:08;17.67;;;10.90;;
5499;SDS011;2772;42.700;23.304;2023-05-15T13:37:35;15.77;;;11.30;;
5499;SDS011;2772;42.700;23.304;2023-05-15T13:40:03;17.00;;;11.50;;
5499;SDS011;2772;42.700;23.304;2023-05-15T13:42:32;18.33;;;10.93;;
5499;SDS011;2772;42.700;23.304;2023-05-15T13:44:58;17.60;;;12.93;;
5499;SDS011;2772;42.700;23.304;2023-05-15T13:47:25;20.90;;;12.10;;
5499;SDS011;2772;42.700;23.304;2023-05-15T13:49:52;15.03;;;10.50;;
5499;SDS011;2772;42.700;23.304;2023-05-15T13:52:20;17.73;;;11.43;;
5499;SDS011;2772;42.700;23.304;2023-05-15T13:54:47;14.27;;;11.57;;
5499;SDS011;2772;42.700;23.304;2023-05-15T13:57:13;24.63;;;11.10;;
5499;SDS011;2772;42.700;23.304;2023-05-15T13:59:40;19.53;;;12.63;;
5499;SDS011;2772;42.700;23.304;2023-05-15T14:02:07;15.53;;;12.07;;
5499;SDS011;2772;42.700;23.304;2023-05-15T14:04:34;17.60;;;12.00;;
5499;SDS011;2772;42.700;23.304;2023-05-15T14:07:01;17.77;;;11.40;;
5499;SDS011;2772;42.700;23.304;2023-05-15T14:09:29;18.80;;;11.70;;
5499;SDS011;2772;42.700;23.304;2023-05-15T14:11:56;19.37;;;11.67;;
5499;SDS011;2772;42.700;23.304;2023-05-15T14:14:23;17.30;;;12.00;;
5499;SDS011;2772;42.700;23.304;2023-05-15T14:16:50;15.50;;;10.70;;
5499;SDS011;2772;42.700;23.304;2023-05-15T14:19:16;26.53;;;13.50;;
5499;SDS011;2772;42.700;23.304;2023-05-15T14:21:43;20.43;;;11.43;;
5499;SDS011;2772;42.700;23.304;2023-05-15T14:24:10;15.57;;;10.97;;
5499;SDS011;2772;42.700;23.304;2023-05-15T14:26:38;19.30;;;11.00;;
5499;SDS011;2772;42.700;23.304;2023-05-15T14:29:05;15.60;;;11.73;;
5499;SDS011;2772;42.700;23.304;2023-05-15T14:31:32;22.23;;;10.13;;
5499;SDS011;2772;42.700;23.304;2023-05-15T14:33:59;20.40;;;10.10;;
5499;SDS011;2772;42.700;23.304;2023-05-15T14:36:26;14.13;;;11.03;;
5499;SDS011;2772;42.700;23.304;2023-05-15T14:38:53;17.70;;;9.07;;
5499;SDS011;2772;42.700;23.304;2023-05-15T14:41:19;19.03;;;10.20;;
5499;SDS011;2772;42.700;23.304;2023-05-15T14:43:48;13.20;;;9.17;;
5499;SDS011;2772;42.700;23.304;2023-05-15T14:46:15;13.43;;;7.93;;
5499;SDS011;2772;42.700;23.304;2023-05-15T14:48:41;19.03;;;8.80;;